<?xml version="1.0" encoding="utf-8"?>
<gpx xmlns:xsi="http://www.w3.org/2001/XMLSchema-instance" xmlns:xsd="http://www.w3.org/2001/XMLSchema" version="1.1" creator="Shapelink.com" xmlns="http://www.topografix.com/GPX/1/1" xmlns:gpxtpx="http://www.garmin.com/xmlschemas/TrackPointExtension/v1">
  <metadata>
    <name>Promenad 3.68 km, 2017-03-15</name>
    <desc></desc>
    <author><name>Morten Hedlund</name></author> 
    <time>2017-03-15T13:11:55Z</time>
  </metadata>
  <trk>
    <name>Promenad 3.68 km, 2017-03-15</name>
    <trkseg>
      <trkpt lat="59.027022131149" lon="12.22404142245">
        <ele>113.8</ele>
        <time>2017-03-15T13:11:55Z</time>
      </trkpt>
      <trkpt lat="59.026828593078" lon="12.22411518317">
        <ele>111.2</ele>
        <time>2017-03-15T13:12:09Z</time>
      </trkpt>
      <trkpt lat="59.026641257613" lon="12.224192715745">
        <ele>110.6</ele>
        <time>2017-03-15T13:12:21Z</time>
      </trkpt>
      <trkpt lat="59.026446629895" lon="12.224226075707">
        <ele>108.2</ele>
        <time>2017-03-15T13:12:32Z</time>
      </trkpt>
      <trkpt lat="59.026331714046" lon="12.224029017238">
        <ele>108</ele>
        <time>2017-03-15T13:12:44Z</time>
      </trkpt>
      <trkpt lat="59.026319811748" lon="12.223666416244">
        <ele>108.2</ele>
        <time>2017-03-15T13:12:57Z</time>
      </trkpt>
      <trkpt lat="59.026340012127" lon="12.223318232118">
        <ele>110</ele>
        <time>2017-03-15T13:13:10Z</time>
      </trkpt>
      <trkpt lat="59.026365074008" lon="12.222965940861">
        <ele>111.8</ele>
        <time>2017-03-15T13:13:23Z</time>
      </trkpt>
      <trkpt lat="59.026413689028" lon="12.222626222454">
        <ele>112.4</ele>
        <time>2017-03-15T13:13:35Z</time>
      </trkpt>
      <trkpt lat="59.026464148066" lon="12.222273093007">
        <ele>113.8</ele>
        <time>2017-03-15T13:13:49Z</time>
      </trkpt>
      <trkpt lat="59.026466746455" lon="12.222190028378">
        <ele>114.8</ele>
        <time>2017-03-15T13:13:53Z</time>
      </trkpt>
      <trkpt lat="59.026512511629" lon="12.221860200613">
        <ele>117.4</ele>
        <time>2017-03-15T13:14:06Z</time>
      </trkpt>
      <trkpt lat="59.026627092202" lon="12.221575132194">
        <ele>119.4</ele>
        <time>2017-03-15T13:14:19Z</time>
      </trkpt>
      <trkpt lat="59.026702361664" lon="12.221240275289">
        <ele>117.6</ele>
        <time>2017-03-15T13:14:32Z</time>
      </trkpt>
      <trkpt lat="59.026778553135" lon="12.220914806112">
        <ele>116.2</ele>
        <time>2017-03-15T13:14:45Z</time>
      </trkpt>
      <trkpt lat="59.026824402128" lon="12.220565616158">
        <ele>114.2</ele>
        <time>2017-03-15T13:14:58Z</time>
      </trkpt>
      <trkpt lat="59.026838818996" lon="12.220205697372">
        <ele>112.8</ele>
        <time>2017-03-15T13:15:11Z</time>
      </trkpt>
      <trkpt lat="59.026852313855" lon="12.219843683111">
        <ele>111.4</ele>
        <time>2017-03-15T13:15:24Z</time>
      </trkpt>
      <trkpt lat="59.026882991609" lon="12.219475550063">
        <ele>109.2</ele>
        <time>2017-03-15T13:15:37Z</time>
      </trkpt>
      <trkpt lat="59.026910065146" lon="12.219120828055">
        <ele>107.6</ele>
        <time>2017-03-15T13:15:50Z</time>
      </trkpt>
      <trkpt lat="59.026924649652" lon="12.218764094391">
        <ele>108</ele>
        <time>2017-03-15T13:16:03Z</time>
      </trkpt>
      <trkpt lat="59.026965804781" lon="12.218409875297">
        <ele>109.2</ele>
        <time>2017-03-15T13:16:16Z</time>
      </trkpt>
      <trkpt lat="59.027033446714" lon="12.21815649046">
        <ele>113.4</ele>
        <time>2017-03-15T13:16:28Z</time>
      </trkpt>
      <trkpt lat="59.027209298976" lon="12.218044340638">
        <ele>111.4</ele>
        <time>2017-03-15T13:16:39Z</time>
      </trkpt>
      <trkpt lat="59.027404513427" lon="12.218019949309">
        <ele>105.4</ele>
        <time>2017-03-15T13:16:51Z</time>
      </trkpt>
      <trkpt lat="59.027603583552" lon="12.218009639572">
        <ele>104.2</ele>
        <time>2017-03-15T13:17:03Z</time>
      </trkpt>
      <trkpt lat="59.0277956967" lon="12.218043250991">
        <ele>106.6</ele>
        <time>2017-03-15T13:17:15Z</time>
      </trkpt>
      <trkpt lat="59.027974817903" lon="12.218097398065">
        <ele>108</ele>
        <time>2017-03-15T13:17:26Z</time>
      </trkpt>
      <trkpt lat="59.028159135884" lon="12.218142408868">
        <ele>109.4</ele>
        <time>2017-03-15T13:17:38Z</time>
      </trkpt>
      <trkpt lat="59.028342783313" lon="12.21815984322">
        <ele>109.2</ele>
        <time>2017-03-15T13:17:51Z</time>
      </trkpt>
      <trkpt lat="59.028530202597" lon="12.218198064684">
        <ele>108</ele>
        <time>2017-03-15T13:18:03Z</time>
      </trkpt>
      <trkpt lat="59.028723070116" lon="12.218284314435">
        <ele>108</ele>
        <time>2017-03-15T13:18:17Z</time>
      </trkpt>
      <trkpt lat="59.028915099445" lon="12.218334019102">
        <ele>108.6</ele>
        <time>2017-03-15T13:18:31Z</time>
      </trkpt>
      <trkpt lat="59.029105117118" lon="12.218353632748">
        <ele>106</ele>
        <time>2017-03-15T13:18:46Z</time>
      </trkpt>
      <trkpt lat="59.029291446755" lon="12.218411803134">
        <ele>110.8</ele>
        <time>2017-03-15T13:18:58Z</time>
      </trkpt>
      <trkpt lat="59.029474675089" lon="12.218452455349">
        <ele>110.4</ele>
        <time>2017-03-15T13:19:11Z</time>
      </trkpt>
      <trkpt lat="59.029661675278" lon="12.218518337083">
        <ele>108.8</ele>
        <time>2017-03-15T13:19:24Z</time>
      </trkpt>
      <trkpt lat="59.029855297168" lon="12.218504590767">
        <ele>104.8</ele>
        <time>2017-03-15T13:19:37Z</time>
      </trkpt>
      <trkpt lat="59.030044644289" lon="12.218532418675">
        <ele>103</ele>
        <time>2017-03-15T13:19:49Z</time>
      </trkpt>
      <trkpt lat="59.030230806288" lon="12.218586565749">
        <ele>103.8</ele>
        <time>2017-03-15T13:20:01Z</time>
      </trkpt>
      <trkpt lat="59.030418477029" lon="12.218651357836">
        <ele>103.6</ele>
        <time>2017-03-15T13:20:14Z</time>
      </trkpt>
      <trkpt lat="59.03059608949" lon="12.218722017253">
        <ele>100</ele>
        <time>2017-03-15T13:20:28Z</time>
      </trkpt>
      <trkpt lat="59.030778982548" lon="12.218831149591">
        <ele>96.4</ele>
        <time>2017-03-15T13:20:42Z</time>
      </trkpt>
      <trkpt lat="59.030957433199" lon="12.218908765985">
        <ele>95.8</ele>
        <time>2017-03-15T13:20:55Z</time>
      </trkpt>
      <trkpt lat="59.031121215525" lon="12.21907011756">
        <ele>96.6</ele>
        <time>2017-03-15T13:21:09Z</time>
      </trkpt>
      <trkpt lat="59.031287512421" lon="12.219205233788">
        <ele>99.8</ele>
        <time>2017-03-15T13:21:22Z</time>
      </trkpt>
      <trkpt lat="59.031356746915" lon="12.21952609292">
        <ele>102.8</ele>
        <time>2017-03-15T13:21:33Z</time>
      </trkpt>
      <trkpt lat="59.031274101381" lon="12.219838570152">
        <ele>98.2</ele>
        <time>2017-03-15T13:21:45Z</time>
      </trkpt>
      <trkpt lat="59.031162873568" lon="12.22014383895">
        <ele>94.6</ele>
        <time>2017-03-15T13:21:57Z</time>
      </trkpt>
      <trkpt lat="59.031049717918" lon="12.220415496329">
        <ele>92.2</ele>
        <time>2017-03-15T13:22:10Z</time>
      </trkpt>
      <trkpt lat="59.030943770702" lon="12.220727303009">
        <ele>92.2</ele>
        <time>2017-03-15T13:22:24Z</time>
      </trkpt>
      <trkpt lat="59.030874703846" lon="12.221030560151">
        <ele>92.6</ele>
        <time>2017-03-15T13:22:36Z</time>
      </trkpt>
      <trkpt lat="59.030984422917" lon="12.221302385168">
        <ele>97.2</ele>
        <time>2017-03-15T13:22:50Z</time>
      </trkpt>
      <trkpt lat="59.031126077027" lon="12.2215478072">
        <ele>95.4</ele>
        <time>2017-03-15T13:23:03Z</time>
      </trkpt>
      <trkpt lat="59.031267731137" lon="12.221802700779">
        <ele>89.2</ele>
        <time>2017-03-15T13:23:19Z</time>
      </trkpt>
      <trkpt lat="59.031418856794" lon="12.221998082868">
        <ele>91.4</ele>
        <time>2017-03-15T13:23:31Z</time>
      </trkpt>
      <trkpt lat="59.03143763225" lon="12.222067904095">
        <ele>91.8</ele>
        <time>2017-03-15T13:23:34Z</time>
      </trkpt>
      <trkpt lat="59.031338306735" lon="12.222388176494">
        <ele>90.4</ele>
        <time>2017-03-15T13:23:46Z</time>
      </trkpt>
      <trkpt lat="59.031290529905" lon="12.222731415299">
        <ele>88</ele>
        <time>2017-03-15T13:23:58Z</time>
      </trkpt>
      <trkpt lat="59.031190869114" lon="12.223024278885">
        <ele>89.6</ele>
        <time>2017-03-15T13:24:09Z</time>
      </trkpt>
      <trkpt lat="59.031071259401" lon="12.223301635956">
        <ele>88.8</ele>
        <time>2017-03-15T13:24:21Z</time>
      </trkpt>
      <trkpt lat="59.030960366864" lon="12.223584105986">
        <ele>88.6</ele>
        <time>2017-03-15T13:24:33Z</time>
      </trkpt>
      <trkpt lat="59.030846037748" lon="12.223866911292">
        <ele>87.8</ele>
        <time>2017-03-15T13:24:45Z</time>
      </trkpt>
      <trkpt lat="59.030742688921" lon="12.224153320815">
        <ele>87.4</ele>
        <time>2017-03-15T13:24:57Z</time>
      </trkpt>
      <trkpt lat="59.030632047841" lon="12.224431013162">
        <ele>87</ele>
        <time>2017-03-15T13:25:09Z</time>
      </trkpt>
      <trkpt lat="59.03051394687" lon="12.224723960567">
        <ele>87.4</ele>
        <time>2017-03-15T13:25:22Z</time>
      </trkpt>
      <trkpt lat="59.030387044904" lon="12.224967790038">
        <ele>86.6</ele>
        <time>2017-03-15T13:25:35Z</time>
      </trkpt>
      <trkpt lat="59.030264752983" lon="12.225257803778">
        <ele>86.4</ele>
        <time>2017-03-15T13:25:48Z</time>
      </trkpt>
      <trkpt lat="59.03016609802" lon="12.22547137459">
        <ele>87.6</ele>
        <time>2017-03-15T13:25:58Z</time>
      </trkpt>
      <trkpt lat="59.030095438603" lon="12.225803968382">
        <ele>87.8</ele>
        <time>2017-03-15T13:26:11Z</time>
      </trkpt>
      <trkpt lat="59.030063252107" lon="12.226172436706">
        <ele>90.2</ele>
        <time>2017-03-15T13:26:24Z</time>
      </trkpt>
      <trkpt lat="59.03004036952" lon="12.226536881718">
        <ele>87.2</ele>
        <time>2017-03-15T13:26:37Z</time>
      </trkpt>
      <trkpt lat="59.030018744218" lon="12.226881042532">
        <ele>90.2</ele>
        <time>2017-03-15T13:26:49Z</time>
      </trkpt>
      <trkpt lat="59.029993849975" lon="12.227241548051">
        <ele>92</ele>
        <time>2017-03-15T13:27:02Z</time>
      </trkpt>
      <trkpt lat="59.029966022067" lon="12.22758780434">
        <ele>91.4</ele>
        <time>2017-03-15T13:27:15Z</time>
      </trkpt>
      <trkpt lat="59.029897541944" lon="12.227930288774">
        <ele>84</ele>
        <time>2017-03-15T13:27:28Z</time>
      </trkpt>
      <trkpt lat="59.029796037135" lon="12.228235557572">
        <ele>85.8</ele>
        <time>2017-03-15T13:27:41Z</time>
      </trkpt>
      <trkpt lat="59.029712972506" lon="12.2285550756">
        <ele>88.4</ele>
        <time>2017-03-15T13:27:54Z</time>
      </trkpt>
      <trkpt lat="59.029541562651" lon="12.228724892894">
        <ele>86</ele>
        <time>2017-03-15T13:28:07Z</time>
      </trkpt>
      <trkpt lat="59.02931198241" lon="12.228903678821">
        <ele>90</ele>
        <time>2017-03-15T13:28:24Z</time>
      </trkpt>
      <trkpt lat="59.029138728537" lon="12.228998729567">
        <ele>85.2</ele>
        <time>2017-03-15T13:28:38Z</time>
      </trkpt>
      <trkpt lat="59.02894904614" lon="12.229036699574">
        <ele>87.2</ele>
        <time>2017-03-15T13:28:48Z</time>
      </trkpt>
      <trkpt lat="59.028786269642" lon="12.229194698389">
        <ele>92.8</ele>
        <time>2017-03-15T13:29:02Z</time>
      </trkpt>
      <trkpt lat="59.028599772367" lon="12.22924993511">
        <ele>95.2</ele>
        <time>2017-03-15T13:29:16Z</time>
      </trkpt>
      <trkpt lat="59.028410425246" lon="12.229271811869">
        <ele>91.6</ele>
        <time>2017-03-15T13:29:28Z</time>
      </trkpt>
      <trkpt lat="59.028219904659" lon="12.22920215828">
        <ele>93.6</ele>
        <time>2017-03-15T13:29:41Z</time>
      </trkpt>
      <trkpt lat="59.0280555356" lon="12.229050110614">
        <ele>92.4</ele>
        <time>2017-03-15T13:29:52Z</time>
      </trkpt>
      <trkpt lat="59.027881275899" lon="12.228899320233">
        <ele>92.6</ele>
        <time>2017-03-15T13:30:05Z</time>
      </trkpt>
      <trkpt lat="59.027700729773" lon="12.22880066527">
        <ele>92.8</ele>
        <time>2017-03-15T13:30:19Z</time>
      </trkpt>
      <trkpt lat="59.027645995966" lon="12.228842826227">
        <ele>92.6</ele>
        <time>2017-03-15T13:30:23Z</time>
      </trkpt>
      <trkpt lat="59.02758112006" lon="12.229173324544">
        <ele>90.2</ele>
        <time>2017-03-15T13:30:36Z</time>
      </trkpt>
      <trkpt lat="59.027676589901" lon="12.229435678014">
        <ele>90.4</ele>
        <time>2017-03-15T13:30:49Z</time>
      </trkpt>
      <trkpt lat="59.027841629512" lon="12.229605662946">
        <ele>88.6</ele>
        <time>2017-03-15T13:31:02Z</time>
      </trkpt>
      <trkpt lat="59.027966100727" lon="12.229859718335">
        <ele>91</ele>
        <time>2017-03-15T13:31:15Z</time>
      </trkpt>
      <trkpt lat="59.028072047943" lon="12.230146882229">
        <ele>90.2</ele>
        <time>2017-03-15T13:31:29Z</time>
      </trkpt>
      <trkpt lat="59.028191992932" lon="12.230434968132">
        <ele>91.6</ele>
        <time>2017-03-15T13:31:44Z</time>
      </trkpt>
      <trkpt lat="59.028320487459" lon="12.230709140081">
        <ele>92.4</ele>
        <time>2017-03-15T13:31:57Z</time>
      </trkpt>
      <trkpt lat="59.028455687506" lon="12.230960597081">
        <ele>94.4</ele>
        <time>2017-03-15T13:32:10Z</time>
      </trkpt>
      <trkpt lat="59.028603879498" lon="12.2311953741">
        <ele>96.8</ele>
        <time>2017-03-15T13:32:23Z</time>
      </trkpt>
      <trkpt lat="59.028668168671" lon="12.23146694766">
        <ele>96.6</ele>
        <time>2017-03-15T13:32:34Z</time>
      </trkpt>
      <trkpt lat="59.028769002928" lon="12.231760649436">
        <ele>95.4</ele>
        <time>2017-03-15T13:32:47Z</time>
      </trkpt>
      <trkpt lat="59.02888953465" lon="12.23203440229">
        <ele>94.2</ele>
        <time>2017-03-15T13:33:02Z</time>
      </trkpt>
      <trkpt lat="59.028934880729" lon="12.232343778219">
        <ele>94.6</ele>
        <time>2017-03-15T13:33:15Z</time>
      </trkpt>
      <trkpt lat="59.028760118114" lon="12.232469590538">
        <ele>95.6</ele>
        <time>2017-03-15T13:33:28Z</time>
      </trkpt>
      <trkpt lat="59.0285835953" lon="12.232557851945">
        <ele>94</ele>
        <time>2017-03-15T13:33:40Z</time>
      </trkpt>
      <trkpt lat="59.028405144649" lon="12.232652818872">
        <ele>94.6</ele>
        <time>2017-03-15T13:33:53Z</time>
      </trkpt>
      <trkpt lat="59.028234153889" lon="12.232760442468">
        <ele>96.8</ele>
        <time>2017-03-15T13:34:05Z</time>
      </trkpt>
      <trkpt lat="59.028052685754" lon="12.23285750487">
        <ele>95.4</ele>
        <time>2017-03-15T13:34:19Z</time>
      </trkpt>
      <trkpt lat="59.027872642542" lon="12.23290360532">
        <ele>94</ele>
        <time>2017-03-15T13:34:31Z</time>
      </trkpt>
      <trkpt lat="59.027686815819" lon="12.232943335526">
        <ele>90.2</ele>
        <time>2017-03-15T13:34:46Z</time>
      </trkpt>
      <trkpt lat="59.027502497838" lon="12.232991531451">
        <ele>90.2</ele>
        <time>2017-03-15T13:34:58Z</time>
      </trkpt>
      <trkpt lat="59.027306696654" lon="12.233001254455">
        <ele>89</ele>
        <time>2017-03-15T13:35:11Z</time>
      </trkpt>
      <trkpt lat="59.027125899071" lon="12.233007289423">
        <ele>90.4</ele>
        <time>2017-03-15T13:35:22Z</time>
      </trkpt>
      <trkpt lat="59.02694325747" lon="12.23302179011">
        <ele>89.6</ele>
        <time>2017-03-15T13:35:34Z</time>
      </trkpt>
      <trkpt lat="59.026762376068" lon="12.233133939932">
        <ele>90.8</ele>
        <time>2017-03-15T13:35:47Z</time>
      </trkpt>
      <trkpt lat="59.026612591515" lon="12.233260925717">
        <ele>88.6</ele>
        <time>2017-03-15T13:36:01Z</time>
      </trkpt>
      <trkpt lat="59.026450485569" lon="12.233227481936">
        <ele>88.6</ele>
        <time>2017-03-15T13:36:15Z</time>
      </trkpt>
      <trkpt lat="59.026301706844" lon="12.233431497382">
        <ele>87.8</ele>
        <time>2017-03-15T13:36:27Z</time>
      </trkpt>
      <trkpt lat="59.026155275051" lon="12.233652863361">
        <ele>85.4</ele>
        <time>2017-03-15T13:36:40Z</time>
      </trkpt>
      <trkpt lat="59.026014040036" lon="12.233893675348">
        <ele>85.8</ele>
        <time>2017-03-15T13:36:53Z</time>
      </trkpt>
      <trkpt lat="59.025862160008" lon="12.234105737418">
        <ele>86.8</ele>
        <time>2017-03-15T13:37:07Z</time>
      </trkpt>
      <trkpt lat="59.025848162235" lon="12.234105653599">
        <ele>86.8</ele>
        <time>2017-03-15T13:37:08Z</time>
      </trkpt>
      <trkpt lat="59.025706424306" lon="12.233870289847">
        <ele>88.2</ele>
        <time>2017-03-15T13:37:20Z</time>
      </trkpt>
      <trkpt lat="59.02558538967" lon="12.233607182006">
        <ele>88.4</ele>
        <time>2017-03-15T13:37:32Z</time>
      </trkpt>
      <trkpt lat="59.025461253731" lon="12.2333327586">
        <ele>88.8</ele>
        <time>2017-03-15T13:37:45Z</time>
      </trkpt>
      <trkpt lat="59.02541775167" lon="12.23299245346">
        <ele>87.8</ele>
        <time>2017-03-15T13:37:57Z</time>
      </trkpt>
      <trkpt lat="59.025455051125" lon="12.232661787505">
        <ele>88</ele>
        <time>2017-03-15T13:38:43Z</time>
      </trkpt>
      <trkpt lat="59.0255409656" lon="12.232336234509">
        <ele>88</ele>
        <time>2017-03-15T13:38:56Z</time>
      </trkpt>
      <trkpt lat="59.025650265576" lon="12.232037838869">
        <ele>87.8</ele>
        <time>2017-03-15T13:39:09Z</time>
      </trkpt>
      <trkpt lat="59.025777670456" lon="12.231785795136">
        <ele>87</ele>
        <time>2017-03-15T13:39:21Z</time>
      </trkpt>
      <trkpt lat="59.025924186068" lon="12.231566356994">
        <ele>87.2</ele>
        <time>2017-03-15T13:39:33Z</time>
      </trkpt>
      <trkpt lat="59.026087130204" lon="12.231394444225">
        <ele>88.2</ele>
        <time>2017-03-15T13:39:46Z</time>
      </trkpt>
      <trkpt lat="59.026271615823" lon="12.231306266637">
        <ele>90</ele>
        <time>2017-03-15T13:39:58Z</time>
      </trkpt>
      <trkpt lat="59.026459538021" lon="12.231270643562">
        <ele>90.4</ele>
        <time>2017-03-15T13:40:11Z</time>
      </trkpt>
      <trkpt lat="59.026632372799" lon="12.231148938374">
        <ele>89</ele>
        <time>2017-03-15T13:40:24Z</time>
      </trkpt>
      <trkpt lat="59.026786767397" lon="12.230949197697">
        <ele>89.2</ele>
        <time>2017-03-15T13:40:36Z</time>
      </trkpt>
      <trkpt lat="59.026923476186" lon="12.230693885023">
        <ele>92.2</ele>
        <time>2017-03-15T13:40:49Z</time>
      </trkpt>
      <trkpt lat="59.027061106984" lon="12.230458353633">
        <ele>93</ele>
        <time>2017-03-15T13:41:02Z</time>
      </trkpt>
      <trkpt lat="59.027192870452" lon="12.230203962968">
        <ele>91</ele>
        <time>2017-03-15T13:41:15Z</time>
      </trkpt>
      <trkpt lat="59.027323292816" lon="12.229937921462">
        <ele>92.4</ele>
        <time>2017-03-15T13:41:28Z</time>
      </trkpt>
      <trkpt lat="59.027435694095" lon="12.229638687632">
        <ele>90.6</ele>
        <time>2017-03-15T13:41:43Z</time>
      </trkpt>
      <trkpt lat="59.027516411792" lon="12.22930525565">
        <ele>88.2</ele>
        <time>2017-03-15T13:41:56Z</time>
      </trkpt>
      <trkpt lat="59.02756519445" lon="12.228960340465">
        <ele>89.6</ele>
        <time>2017-03-15T13:42:09Z</time>
      </trkpt>
      <trkpt lat="59.027562763699" lon="12.228833606137">
        <ele>89</ele>
        <time>2017-03-15T13:42:14Z</time>
      </trkpt>
      <trkpt lat="59.027542647139" lon="12.228794714121">
        <ele>88.4</ele>
        <time>2017-03-15T13:42:16Z</time>
      </trkpt>
      <trkpt lat="59.027362436289" lon="12.228704105782">
        <ele>87.8</ele>
        <time>2017-03-15T13:42:29Z</time>
      </trkpt>
      <trkpt lat="59.02717795067" lon="12.228651635088">
        <ele>87.2</ele>
        <time>2017-03-15T13:42:44Z</time>
      </trkpt>
      <trkpt lat="59.026999835295" lon="12.22857938311">
        <ele>90.6</ele>
        <time>2017-03-15T13:42:58Z</time>
      </trkpt>
      <trkpt lat="59.02682171992" lon="12.228543005664">
        <ele>91.8</ele>
        <time>2017-03-15T13:43:11Z</time>
      </trkpt>
      <trkpt lat="59.026627762754" lon="12.228502101992">
        <ele>88</ele>
        <time>2017-03-15T13:43:25Z</time>
      </trkpt>
      <trkpt lat="59.026451323759" lon="12.228443763968">
        <ele>80.2</ele>
        <time>2017-03-15T13:43:38Z</time>
      </trkpt>
      <trkpt lat="59.026314531151" lon="12.228772502086">
        <ele>89.4</ele>
        <time>2017-03-15T13:43:49Z</time>
      </trkpt>
      <trkpt lat="59.02614613878" lon="12.228955478963">
        <ele>85.8</ele>
        <time>2017-03-15T13:44:03Z</time>
      </trkpt>
      <trkpt lat="59.025960479695" lon="12.22900853639">
        <ele>88</ele>
        <time>2017-03-15T13:44:17Z</time>
      </trkpt>
      <trkpt lat="59.025782951053" lon="12.228967297442">
        <ele>86.6</ele>
        <time>2017-03-15T13:44:30Z</time>
      </trkpt>
      <trkpt lat="59.025632915043" lon="12.228750122413">
        <ele>86.2</ele>
        <time>2017-03-15T13:44:42Z</time>
      </trkpt>
      <trkpt lat="59.025441137171" lon="12.228718019736">
        <ele>86</ele>
        <time>2017-03-15T13:44:55Z</time>
      </trkpt>
      <trkpt lat="59.025252041507" lon="12.228703016135">
        <ele>85.6</ele>
        <time>2017-03-15T13:45:08Z</time>
      </trkpt>
      <trkpt lat="59.025084738783" lon="12.228552728668">
        <ele>85.4</ele>
        <time>2017-03-15T13:45:20Z</time>
      </trkpt>
      <trkpt lat="59.02498440744" lon="12.228188535113">
        <ele>88</ele>
        <time>2017-03-15T13:45:38Z</time>
      </trkpt>
      <trkpt lat="59.024954064962" lon="12.228173028598">
        <ele>89</ele>
        <time>2017-03-15T13:45:41Z</time>
      </trkpt>
      <trkpt lat="59.024800173278" lon="12.228354664371">
        <ele>89.8</ele>
        <time>2017-03-15T13:45:54Z</time>
      </trkpt>
      <trkpt lat="59.024671930208" lon="12.228226588939">
        <ele>91.6</ele>
        <time>2017-03-15T13:46:07Z</time>
      </trkpt>
      <trkpt lat="59.024662039566" lon="12.227867927438">
        <ele>93.2</ele>
        <time>2017-03-15T13:46:19Z</time>
      </trkpt>
      <trkpt lat="59.024646533051" lon="12.227516725828">
        <ele>96.2</ele>
        <time>2017-03-15T13:46:31Z</time>
      </trkpt>
      <trkpt lat="59.024661201376" lon="12.227168457883">
        <ele>97.2</ele>
        <time>2017-03-15T13:46:44Z</time>
      </trkpt>
      <trkpt lat="59.024813835775" lon="12.226977769658">
        <ele>99.4</ele>
        <time>2017-03-15T13:46:57Z</time>
      </trkpt>
      <trkpt lat="59.024994214263" lon="12.226946421352">
        <ele>96.6</ele>
        <time>2017-03-15T13:47:10Z</time>
      </trkpt>
      <trkpt lat="59.02517467657" lon="12.226859584868">
        <ele>96.4</ele>
        <time>2017-03-15T13:47:22Z</time>
      </trkpt>
      <trkpt lat="59.025351115565" lon="12.226779621542">
        <ele>97.6</ele>
        <time>2017-03-15T13:47:34Z</time>
      </trkpt>
      <trkpt lat="59.025527806017" lon="12.226640565821">
        <ele>98.2</ele>
        <time>2017-03-15T13:47:47Z</time>
      </trkpt>
      <trkpt lat="59.025694019094" lon="12.226493379657">
        <ele>93.2</ele>
        <time>2017-03-15T13:48:00Z</time>
      </trkpt>
      <trkpt lat="59.025868278795" lon="12.226364466035">
        <ele>90.4</ele>
        <time>2017-03-15T13:48:14Z</time>
      </trkpt>
      <trkpt lat="59.02604723236" lon="12.226261620122">
        <ele>92.4</ele>
        <time>2017-03-15T13:48:26Z</time>
      </trkpt>
      <trkpt lat="59.026221911156" lon="12.226160953503">
        <ele>97</ele>
        <time>2017-03-15T13:48:39Z</time>
      </trkpt>
      <trkpt lat="59.026399607436" lon="12.226044193636">
        <ele>97.2</ele>
        <time>2017-03-15T13:48:53Z</time>
      </trkpt>
      <trkpt lat="59.026516954036" lon="12.225808662246">
        <ele>98.4</ele>
        <time>2017-03-15T13:49:06Z</time>
      </trkpt>
      <trkpt lat="59.026587948729" lon="12.22547305097">
        <ele>98.8</ele>
        <time>2017-03-15T13:49:21Z</time>
      </trkpt>
      <trkpt lat="59.026649220418" lon="12.225165854335">
        <ele>103</ele>
        <time>2017-03-15T13:49:33Z</time>
      </trkpt>
      <trkpt lat="59.026736643635" lon="12.224857568053">
        <ele>105.4</ele>
        <time>2017-03-15T13:49:46Z</time>
      </trkpt>
      <trkpt lat="59.026809649984" lon="12.22454182188">
        <ele>104.6</ele>
        <time>2017-03-15T13:49:58Z</time>
      </trkpt>
      <trkpt lat="59.026900258323" lon="12.224266225008">
        <ele>104.6</ele>
        <time>2017-03-15T13:50:11Z</time>
      </trkpt>
      <trkpt lat="59.027057586586" lon="12.224228841734">
        <ele>105.6</ele>
        <time>2017-03-15T13:50:21Z</time>
      </trkpt>
    </trkseg>
  </trk>
</gpx>